Time;durP1;ratioP1;P1;durP2;ratioP2;P2;SDS_P1;SDS_P2;PMS_P1;PMS_P2;Temp;Humidity;BMP_temperature;BMP_pressure;BME280_temperature;BME280_humidity;BME280_pressure;Samples;Min_cycle;Max_cycle;Signal;HPM_P1;HPM_P2
2022/09/21 00:01:17;;;;;;;3.13;1.92;;;15.50;70.50;;;;;;5115738;28;20022;-15
2022/09/21 00:03:44;;;;;;;6.78;1.95;;;15.50;69.90;;;;;;5116025;28;20032;-16
2022/09/21 00:06:16;;;;;;;7.30;2.05;;;15.40;69.40;;;;;;5115782;28;20053;-15
2022/09/21 00:08:44;;;;;;;3.22;1.70;;;15.30;69.90;;;;;;5115527;28;20518;-16
2022/09/21 00:11:15;;;;;;;4.22;1.83;;;15.20;70.00;;;;;;5115202;28;20027;-16
2022/09/21 00:13:43;;;;;;;3.20;1.70;;;15.10;71.90;;;;;;5115411;28;20462;-16
2022/09/21 00:16:09;;;;;;;2.30;1.55;;;14.90;72.10;;;;;;5202328;22;20044;-17
2022/09/21 00:18:36;;;;;;;3.85;1.63;;;14.70;72.60;;;;;;5115550;28;20077;-17
2022/09/21 00:21:07;;;;;;;2.90;1.17;;;14.60;73.10;;;;;;5169818;22;20113;-19
2022/09/21 00:23:35;;;;;;;4.55;1.60;;;14.50;73.20;;;;;;5094875;28;20024;-20
2022/09/21 00:26:06;;;;;;;2.85;1.20;;;14.30;74.10;;;;;;5094646;28;20028;-21
2022/09/21 00:28:32;;;;;;;2.78;1.20;;;14.20;74.10;;;;;;5094986;28;20064;-19
2022/09/21 00:31:07;;;;;;;2.67;1.42;;;14.00;75.30;;;;;;5094663;28;20056;-21
2022/09/21 00:33:33;;;;;;;2.65;1.58;;;14.00;75.70;;;;;;5094889;28;20035;-19
2022/09/21 00:36:08;;;;;;;2.30;1.30;;;13.90;76.20;;;;;;5076390;28;20016;-21
2022/09/21 00:38:35;;;;;;;3.17;1.30;;;13.80;76.40;;;;;;5094408;28;20437;-20
2022/09/21 00:41:02;;;;;;;1.98;1.30;;;13.70;77.50;;;;;;5094325;28;20546;-21
2022/09/21 00:43:28;;;;;;;1.85;1.20;;;13.60;78.00;;;;;;5094691;28;20035;-18
2022/09/21 00:46:01;;;;;;;2.22;1.20;;;13.50;79.00;;;;;;5094547;28;20119;-20
2022/09/21 00:48:28;;;;;;;4.03;1.58;;;13.50;77.60;;;;;;5094673;28;20105;-21
2022/09/21 00:51:00;;;;;;;2.40;1.42;;;13.40;78.60;;;;;;5093958;28;20028;-20
2022/09/21 00:53:27;;;;;;;3.50;1.33;;;13.30;78.80;;;;;;5094224;28;20027;-19
2022/09/21 00:55:56;;;;;;;4.15;1.48;;;13.30;79.10;;;;;;5094514;28;20073;-19
2022/09/21 00:58:28;;;;;;;2.15;1.27;;;13.30;79.10;;;;;;5094047;28;20028;-20
2022/09/21 01:00:56;;;;;;;2.20;1.48;;;13.30;78.50;;;;;;5093279;28;20387;-18
2022/09/21 01:03:21;;;;;;;1.63;1.30;;;13.30;78.10;;;;;;5094310;28;20016;-19
2022/09/21 01:05:47;;;;;;;2.92;1.27;;;13.30;78.20;;;;;;5093939;28;20016;-18
2022/09/21 01:08:15;;;;;;;1.88;1.63;;;13.30;78.80;;;;;;5094224;28;20042;-20
2022/09/21 01:11:00;;;;;;;1.85;1.50;;;13.30;80.30;;;;;;5093985;28;20024;-20
2022/09/21 01:13:55;;;;;;;2.92;1.50;;;13.20;79.90;;;;;;5093907;28;20032;-20
2022/09/21 01:16:48;;;;;;;4.95;1.70;;;13.20;79.30;;;;;;5093857;28;20028;-20
2022/09/21 01:19:26;;;;;;;2.15;1.48;;;13.20;80.20;;;;;;5093991;28;20036;-21
2022/09/21 01:22:18;;;;;;;8.60;1.60;;;13.10;79.80;;;;;;5093710;28;20047;-20
2022/09/21 01:24:43;;;;;;;1.52;1.38;;;13.10;79.70;;;;;;5093921;28;20050;-20
2022/09/21 01:27:47;;;;;;;3.03;1.60;;;13.10;80.30;;;;;;5145166;22;20566;-16
2022/09/21 01:30:22;;;;;;;4.18;1.95;;;13.10;79.70;;;;;;5075449;28;20028;-17
2022/09/21 01:32:59;;;;;;;2.30;1.58;;;13.10;79.80;;;;;;5075209;28;20115;-17
2022/09/21 01:35:40;;;;;;;2.33;1.73;;;13.10;80.30;;;;;;5093544;28;20063;-15
2022/09/21 01:38:14;;;;;;;3.88;2.42;;;13.00;80.30;;;;;;5093492;28;20106;-14
2022/09/21 01:40:44;;;;;;;4.80;2.10;;;13.00;80.10;;;;;;5093521;28;20024;-15
2022/09/21 01:43:17;;;;;;;5.40;1.92;;;13.00;80.70;;;;;;5093519;28;20038;-15
2022/09/21 01:45:49;;;;;;;2.35;1.88;;;12.90;81.00;;;;;;5093365;28;20032;-16
2022/09/21 01:48:17;;;;;;;4.78;2.17;;;12.90;81.10;;;;;;5093544;28;20020;-16
2022/09/21 01:50:49;;;;;;;2.55;1.95;;;12.90;80.60;;;;;;5093491;28;20026;-15
2022/09/21 01:53:23;;;;;;;3.03;2.20;;;12.90;81.70;;;;;;5075241;28;20032;-15
2022/09/21 01:55:54;;;;;;;3.67;2.15;;;12.90;81.60;;;;;;5093531;28;20039;-15
2022/09/21 01:58:26;;;;;;;3.38;1.63;;;12.90;81.50;;;;;;5093585;28;20108;-16
2022/09/21 02:00:56;;;;;;;2.17;1.98;;;12.90;80.90;;;;;;5093374;28;20028;-15
2022/09/21 02:03:27;;;;;;;4.32;1.85;;;12.90;81.30;;;;;;5093536;28;20048;-15
2022/09/21 02:05:56;;;;;;;2.25;1.70;;;12.90;81.70;;;;;;5093046;28;20024;-16
2022/09/21 02:08:25;;;;;;;2.53;2.00;;;12.90;80.50;;;;;;5093388;28;20024;-17
2022/09/21 02:10:52;;;;;;;3.75;2.00;;;12.90;80.00;;;;;;5075458;28;20028;-16
2022/09/21 02:13:22;;;;;;;4.05;2.50;;;12.90;81.00;;;;;;5096722;28;20016;-16
2022/09/21 02:15:58;;;;;;;2.67;2.40;;;12.90;81.30;;;;;;5097543;28;20047;-16
2022/09/21 02:18:51;;;;;;;3.17;2.50;;;12.90;80.50;;;;;;5097555;28;20063;-16
2022/09/21 02:21:40;;;;;;;4.20;2.53;;;12.90;80.50;;;;;;5097461;28;20081;-14
2022/09/21 02:24:30;;;;;;;3.03;2.08;;;12.90;80.10;;;;;;5097360;28;20073;-16
2022/09/21 02:27:21;;;;;;;4.03;2.00;;;12.90;79.80;;;;;;5096711;28;20051;-16
2022/09/21 02:30:21;;;;;;;3.13;1.90;;;12.90;79.20;;;;;;5081969;28;20028;-16
2022/09/21 02:33:25;;;;;;;3.08;1.92;;;12.90;79.90;;;;;;5097264;28;20032;-16
2022/09/21 02:36:08;;;;;;;3.25;1.80;;;12.90;79.00;;;;;;5097155;28;20048;-15
2022/09/21 02:38:45;;;;;;;2.92;1.95;;;12.90;78.70;;;;;;5097036;28;20028;-17
2022/09/21 02:41:23;;;;;;;3.03;1.80;;;12.90;78.90;;;;;;5078634;28;20023;-16
2022/09/21 02:44:00;;;;;;;2.63;1.80;;;12.90;79.00;;;;;;5096734;28;20112;-16
2022/09/21 02:46:38;;;;;;;2.25;1.75;;;12.90;78.50;;;;;;5096875;28;20036;-16
2022/09/21 02:49:09;;;;;;;2.35;1.70;;;12.90;79.10;;;;;;5096517;28;20074;-15
2022/09/21 02:51:44;;;;;;;2.58;1.50;;;12.90;78.90;;;;;;5097019;28;20081;-15
2022/09/21 02:54:14;;;;;;;3.22;1.60;;;12.90;78.20;;;;;;5096880;28;20103;-15
2022/09/21 02:56:42;;;;;;;2.80;1.90;;;12.90;78.10;;;;;;5096394;28;20020;-15
2022/09/21 02:59:09;;;;;;;1.80;1.48;;;12.90;78.00;;;;;;5096569;28;20024;-16
2022/09/21 03:01:38;;;;;;;1.35;1.25;;;12.90;77.90;;;;;;5096318;28;20566;-15
2022/09/21 03:04:04;;;;;;;2.63;2.20;;;12.90;77.90;;;;;;5096200;28;20429;-17
2022/09/21 03:06:30;;;;;;;3.97;1.60;;;12.90;78.20;;;;;;5096594;28;20099;-16
2022/09/21 03:08:57;;;;;;;3.03;1.88;;;12.90;78.00;;;;;;5096090;28;20035;-16
2022/09/21 03:11:24;;;;;;;1.83;1.50;;;12.90;78.30;;;;;;5096183;28;20020;-16
2022/09/21 03:13:50;;;;;;;3.17;2.40;;;12.90;77.80;;;;;;5096418;28;20032;-16
2022/09/21 03:16:16;;;;;;;3.65;1.83;;;12.90;77.70;;;;;;5096368;28;20031;-17
2022/09/21 03:18:43;;;;;;;3.95;2.50;;;12.90;77.70;;;;;;5096368;28;20024;-15
2022/09/21 03:21:11;;;;;;;2.70;2.15;;;12.90;77.50;;;;;;5095892;28;20035;-17
2022/09/21 03:23:38;;;;;;;2.85;2.10;;;12.90;77.50;;;;;;5095442;28;20024;-15
2022/09/21 03:26:05;;;;;;;2.08;1.83;;;12.90;77.50;;;;;;5095707;28;20503;-15
2022/09/21 03:28:31;;;;;;;2.03;1.80;;;12.90;77.80;;;;;;5096252;28;20028;-16
2022/09/21 03:30:57;;;;;;;2.30;2.10;;;12.90;77.60;;;;;;5095925;28;20059;-16
2022/09/21 03:33:24;;;;;;;2.28;1.73;;;12.90;78.00;;;;;;5096074;28;20056;-16
2022/09/21 03:35:51;;;;;;;2.72;1.60;;;12.90;77.70;;;;;;5096102;28;20020;-16
2022/09/21 03:38:19;;;;;;;2.28;1.65;;;12.90;77.50;;;;;;5095854;28;20024;-16
2022/09/21 03:40:46;;;;;;;2.40;1.60;;;12.90;77.50;;;;;;5095673;28;20027;-17
2022/09/21 03:43:12;;;;;;;3.65;2.13;;;12.90;77.40;;;;;;5095703;28;20020;-15
2022/09/21 03:45:40;;;;;;;3.85;2.13;;;12.90;77.60;;;;;;5095679;28;20028;-16
2022/09/21 03:48:07;;;;;;;2.85;1.60;;;12.90;77.60;;;;;;5095885;28;20040;-17
2022/09/21 03:50:33;;;;;;;1.83;1.52;;;12.80;77.40;;;;;;5095545;28;20027;-16
2022/09/21 03:52:59;;;;;;;1.90;1.67;;;12.80;77.40;;;;;;5077067;28;20024;-15
2022/09/21 03:55:26;;;;;;;3.40;1.90;;;12.70;77.50;;;;;;5095853;28;20027;-16
2022/09/21 03:57:52;;;;;;;2.88;2.20;;;12.70;77.70;;;;;;5095587;28;20027;-15
2022/09/21 04:00:19;;;;;;;1.95;1.75;;;12.70;77.90;;;;;;5095478;28;20060;-15
2022/09/21 04:02:45;;;;;;;3.13;2.38;;;12.60;77.60;;;;;;5095147;28;20032;-16
2022/09/21 04:05:13;;;;;;;2.20;1.83;;;12.60;77.70;;;;;;5095097;28;20024;-16
2022/09/21 04:07:41;;;;;;;2.92;2.13;;;12.60;77.80;;;;;;5095364;28;20028;-16
2022/09/21 04:10:12;;;;;;;2.85;1.73;;;12.50;77.80;;;;;;5095045;28;20020;-15
2022/09/21 04:12:42;;;;;;;3.05;1.90;;;12.50;77.70;;;;;;5076918;28;20024;-15
2022/09/21 04:15:18;;;;;;;2.90;1.85;;;12.40;77.90;;;;;;5094662;28;20496;-15
2022/09/21 04:17:45;;;;;;;4.82;2.15;;;12.30;78.20;;;;;;5094966;28;20028;-14
2022/09/21 04:20:11;;;;;;;2.58;1.77;;;12.30;78.40;;;;;;5095032;28;20024;-17
2022/09/21 04:22:37;;;;;;;2.70;2.28;;;12.20;78.30;;;;;;5094774;28;20429;-15
2022/09/21 04:25:04;;;;;;;2.90;1.80;;;12.20;79.00;;;;;;5094462;28;20035;-14
2022/09/21 04:27:31;;;;;;;2.83;1.77;;;12.10;79.30;;;;;;5094498;28;20097;-15
2022/09/21 04:29:58;;;;;;;2.20;1.95;;;12.10;79.70;;;;;;5076584;28;20028;-15
2022/09/21 04:32:23;;;;;;;3.80;2.05;;;12.00;79.50;;;;;;5094605;28;20039;-15
2022/09/21 04:34:50;;;;;;;4.20;2.10;;;12.00;79.60;;;;;;5093521;28;20028;-14
2022/09/21 04:37:16;;;;;;;4.97;2.20;;;11.90;79.40;;;;;;5094516;28;20032;-15
2022/09/21 04:39:42;;;;;;;2.28;1.80;;;11.90;79.30;;;;;;5094482;28;20479;-17
2022/09/21 04:42:09;;;;;;;2.03;1.80;;;11.90;79.00;;;;;;5094631;28;20024;-15
2022/09/21 04:44:35;;;;;;;2.85;1.90;;;11.90;78.80;;;;;;5094501;28;20097;-16
2022/09/21 04:47:02;;;;;;;2.22;2.03;;;11.90;78.60;;;;;;5094104;28;20035;-16
2022/09/21 04:49:27;;;;;;;2.17;1.85;;;11.90;79.20;;;;;;5076612;28;20416;-15
2022/09/21 04:51:53;;;;;;;2.42;1.73;;;11.90;78.90;;;;;;5094241;28;20028;-17
2022/09/21 04:54:19;;;;;;;3.95;1.83;;;11.90;78.80;;;;;;5094279;28;20024;-17
2022/09/21 04:56:45;;;;;;;4.15;2.28;;;11.90;78.60;;;;;;5094373;28;20085;-16
2022/09/21 04:59:10;;;;;;;2.30;1.70;;;11.90;78.50;;;;;;5094175;28;20032;-15
2022/09/21 05:01:36;;;;;;;5.88;2.38;;;11.90;78.30;;;;;;5094308;28;20026;-15
2022/09/21 05:04:02;;;;;;;2.33;1.52;;;11.90;78.70;;;;;;5094250;28;20028;-16
2022/09/21 05:06:30;;;;;;;3.47;1.88;;;11.90;78.30;;;;;;5094264;28;20020;-15
2022/09/21 05:11:40;;;;;;;3.25;2.15;;;11.90;78.40;;;;;;5094190;28;20031;-15
2022/09/21 05:14:07;;;;;;;2.50;2.10;;;11.90;78.50;;;;;;5094177;28;20024;-15
2022/09/21 05:16:33;;;;;;;3.92;2.10;;;12.00;78.70;;;;;;5094136;28;20027;-15
2022/09/21 05:18:59;;;;;;;3.80;2.22;;;12.00;78.60;;;;;;5093858;28;20068;-17
2022/09/21 05:21:25;;;;;;;2.15;1.95;;;12.10;79.20;;;;;;5094021;28;20444;-16
2022/09/21 05:23:52;;;;;;;2.45;2.25;;;12.20;79.00;;;;;;5094026;28;20032;-16
2022/09/21 05:26:18;;;;;;;4.18;2.33;;;12.30;79.10;;;;;;5093477;28;20051;-15
2022/09/21 05:28:44;;;;;;;3.83;2.20;;;12.40;80.30;;;;;;5093696;28;20077;-17
2022/09/21 05:31:26;;;;;;;3.78;2.53;;;12.40;79.80;;;;;;5093606;28;20460;-15
2022/09/21 05:34:09;;;;;;;9.05;3.13;;;12.60;80.30;;;;;;5093612;28;20379;-15
2022/09/21 05:36:38;;;;;;;4.82;2.45;;;12.70;79.60;;;;;;5093467;28;20034;-15
2022/09/21 05:39:05;;;;;;;3.72;2.53;;;12.90;79.30;;;;;;5093560;28;20051;-15
2022/09/21 05:41:31;;;;;;;5.03;2.28;;;13.00;79.10;;;;;;5093619;28;20035;-15
2022/09/21 05:43:57;;;;;;;4.63;2.60;;;13.20;78.80;;;;;;5093382;28;20028;-15
2022/09/21 05:46:26;;;;;;;3.70;2.35;;;13.30;78.00;;;;;;5093161;28;20074;-15
2022/09/21 05:49:24;;;;;;;3.25;2.28;;;13.50;77.60;;;;;;5093421;28;20036;-16
2022/09/21 05:52:05;;;;;;;4.35;2.20;;;13.60;77.00;;;;;;5089539;28;20072;-16
2022/09/21 05:54:43;;;;;;;3.85;2.00;;;13.70;76.50;;;;;;5093716;28;20028;-15
2022/09/21 05:57:23;;;;;;;3.22;2.50;;;13.90;76.30;;;;;;5093361;28;20103;-15
2022/09/21 06:00:18;;;;;;;3.08;2.03;;;14.10;75.70;;;;;;5093952;28;20031;-15
2022/09/21 06:03:15;;;;;;;2.53;2.10;;;14.30;74.90;;;;;;5075153;28;20020;-15
2022/09/21 06:05:43;;;;;;;2.80;1.98;;;14.50;73.50;;;;;;5093553;28;20051;-15
2022/09/21 06:08:09;;;;;;;2.13;1.92;;;14.60;73.10;;;;;;5093110;28;20032;-15
2022/09/21 06:10:35;;;;;;;2.83;1.88;;;14.80;73.20;;;;;;5093432;28;20036;-15
2022/09/21 06:13:01;;;;;;;1.95;1.80;;;14.90;72.80;;;;;;5093155;28;20047;-15
2022/09/21 06:15:27;;;;;;;2.55;1.83;;;15.10;71.40;;;;;;5093535;28;20020;-16
2022/09/21 06:17:53;;;;;;;3.33;1.73;;;15.30;71.70;;;;;;5093561;28;20028;-16
2022/09/21 06:20:19;;;;;;;3.28;2.05;;;15.50;69.40;;;;;;5093259;28;20085;-15
2022/09/21 06:22:45;;;;;;;3.55;1.52;;;15.80;69.80;;;;;;5093267;28;20120;-14
2022/09/21 06:25:11;;;;;;;3.33;1.85;;;15.90;68.10;;;;;;5092640;28;20047;-15
2022/09/21 06:27:37;;;;;;;2.03;1.75;;;16.00;66.70;;;;;;5092669;28;20109;-15
2022/09/21 06:30:03;;;;;;;1.80;1.50;;;15.90;66.70;;;;;;5092931;28;20074;-15
2022/09/21 06:32:30;;;;;;;2.55;1.88;;;16.00;66.70;;;;;;5093068;28;20051;-14
2022/09/21 06:34:56;;;;;;;2.60;1.75;;;16.20;66.20;;;;;;5092937;28;20028;-15
2022/09/21 06:37:22;;;;;;;2.63;1.80;;;16.40;66.70;;;;;;5092879;28;20107;-15
2022/09/21 06:39:47;;;;;;;2.70;1.70;;;16.50;63.60;;;;;;5093117;28;20027;-15
2022/09/21 06:42:13;;;;;;;2.00;1.42;;;16.50;61.80;;;;;;5093004;28;20016;-17
2022/09/21 06:44:39;;;;;;;2.47;1.70;;;16.50;63.10;;;;;;5092844;28;20484;-15
2022/09/21 06:47:05;;;;;;;2.53;1.95;;;16.50;60.90;;;;;;5092522;28;20479;-15
2022/09/21 06:49:31;;;;;;;1.70;1.60;;;16.50;59.10;;;;;;5092722;28;20024;-16
2022/09/21 06:51:57;;;;;;;2.35;1.67;;;16.50;59.50;;;;;;5092652;28;20020;-15
2022/09/21 06:54:23;;;;;;;5.65;1.85;;;16.60;61.50;;;;;;5093023;28;20035;-16
2022/09/21 06:56:49;;;;;;;3.42;2.15;;;16.90;60.30;;;;;;5092449;28;20020;-15
2022/09/21 06:59:15;;;;;;;2.20;1.70;;;17.20;58.20;;;;;;5095461;28;20107;-15
2022/09/21 07:01:41;;;;;;;2.22;1.80;;;17.40;58.90;;;;;;5096682;28;20116;-15
2022/09/21 07:04:08;;;;;;;2.63;1.77;;;17.60;58.10;;;;;;5096557;28;20394;-15
2022/09/21 07:06:34;;;;;;;2.22;1.52;;;17.90;56.20;;;;;;5096340;28;20550;-15
2022/09/21 07:09:01;;;;;;;2.97;1.50;;;18.00;56.70;;;;;;5096191;28;20391;-16
2022/09/21 07:11:27;;;;;;;1.58;1.25;;;18.20;55.10;;;;;;5096413;28;20028;-15
2022/09/21 07:13:55;;;;;;;2.92;1.27;;;18.20;53.60;;;;;;5096347;28;20095;-14
2022/09/21 07:16:21;;;;;;;2.20;1.40;;;18.30;55.40;;;;;;5078829;28;20107;-14
2022/09/21 07:18:47;;;;;;;2.13;1.25;;;18.40;53.70;;;;;;5096193;28;20102;-14
2022/09/21 07:21:13;;;;;;;2.47;1.30;;;18.50;53.30;;;;;;5096353;28;20032;-15
2022/09/21 07:23:39;;;;;;;2.70;1.10;;;18.80;51.50;;;;;;5096240;28;20028;-14
2022/09/21 07:26:08;;;;;;;2.70;1.30;;;18.80;50.30;;;;;;5095487;28;20055;-15
2022/09/21 07:28:34;;;;;;;2.90;1.50;;;18.80;51.80;;;;;;5096173;28;20024;-14
2022/09/21 07:31:09;;;;;;;2.42;1.10;;;19.00;52.10;;;;;;5095544;28;20024;-15
2022/09/21 07:33:35;;;;;;;3.90;1.23;;;19.10;50.00;;;;;;5095733;28;20028;-15
2022/09/21 07:36:08;;;;;;;2.10;0.85;;;19.20;48.50;;;;;;5178578;22;20052;-16
2022/09/21 07:38:39;;;;;;;1.13;0.85;;;19.20;48.90;;;;;;5096163;28;20060;-16
2022/09/21 07:41:07;;;;;;;2.10;1.10;;;19.30;48.70;;;;;;5095515;28;20024;-15
2022/09/21 07:43:33;;;;;;;1.50;1.10;;;19.30;49.60;;;;;;5096256;28;20024;-16
2022/09/21 07:46:00;;;;;;;3.85;1.15;;;19.50;50.70;;;;;;5095803;28;20024;-17
2022/09/21 07:48:30;;;;;;;2.55;1.05;;;19.50;47.30;;;;;;5095842;28;20115;-17
2022/09/21 07:51:03;;;;;;;0.93;0.93;;;19.60;49.00;;;;;;5095167;28;20399;-15
2022/09/21 07:53:30;;;;;;;1.83;0.85;;;19.70;48.60;;;;;;5095526;28;20024;-17
2022/09/21 07:56:04;;;;;;;2.55;1.15;;;19.90;49.40;;;;;;5095373;28;20032;-15
2022/09/21 08:01:16;;;;;;;3.05;1.08;;;20.20;47.20;;;;;;5095911;28;20069;-16
2022/09/21 08:03:43;;;;;;;1.80;0.95;;;20.10;48.30;;;;;;5095244;28;20027;-17
2022/09/21 08:06:09;;;;;;;2.10;1.02;;;20.20;48.30;;;;;;5095348;28;20030;-17
2022/09/21 08:08:35;;;;;;;1.33;0.90;;;20.40;49.10;;;;;;5095097;28;20032;-16
2022/09/21 08:11:03;;;;;;;2.40;0.90;;;20.30;47.10;;;;;;5095210;28;20021;-16
2022/09/21 08:13:29;;;;;;;1.50;1.00;;;20.30;46.80;;;;;;5095528;28;20023;-16
2022/09/21 08:16:01;;;;;;;0.73;0.73;;;20.00;46.30;;;;;;5095393;28;20024;-16
2022/09/21 08:18:28;;;;;;;1.40;1.10;;;19.90;47.60;;;;;;5095044;28;20034;-16
2022/09/21 08:20:59;;;;;;;1.70;1.05;;;19.90;47.40;;;;;;5094934;28;20032;-16
2022/09/21 08:23:27;;;;;;;2.42;1.30;;;19.90;47.20;;;;;;5095175;28;20025;-16
2022/09/21 08:25:59;;;;;;;1.90;1.00;;;20.00;46.30;;;;;;5192133;22;20052;-18
2022/09/21 08:28:26;;;;;;;0.80;0.80;;;19.80;45.80;;;;;;5135856;27;20011;-20
2022/09/21 08:30:51;;;;;;;1.05;0.77;;;19.90;46.80;;;;;;5135446;27;20509;-19
2022/09/21 08:33:17;;;;;;;2.47;1.10;;;20.00;45.80;;;;;;5135854;27;20030;-19
2022/09/21 08:35:52;;;;;;;3.13;0.93;;;20.30;47.90;;;;;;5135874;27;20175;-18
2022/09/21 08:38:18;;;;;;;1.50;0.90;;;20.40;46.60;;;;;;5135560;27;20477;-19
2022/09/21 08:40:44;;;;;;;1.27;1.00;;;20.50;43.70;;;;;;5135608;27;20109;-20
2022/09/21 08:43:17;;;;;;;1.45;0.80;;;20.60;45.40;;;;;;5133972;27;20046;-19
2022/09/21 08:45:45;;;;;;;2.28;0.80;;;20.60;44.30;;;;;;5135336;27;20084;-17
2022/09/21 08:48:22;;;;;;;2.53;0.90;;;20.80;44.30;;;;;;5156791;22;20056;-14
2022/09/21 08:50:52;;;;;;;1.25;0.88;;;21.00;44.50;;;;;;5094182;28;20016;-17
2022/09/21 08:53:25;;;;;;;0.73;0.73;;;21.20;43.80;;;;;;5094308;28;20024;-15
2022/09/21 08:55:55;;;;;;;1.00;0.70;;;21.30;43.40;;;;;;5094280;28;20020;-14
2022/09/21 08:58:24;;;;;;;1.85;0.95;;;21.20;43.40;;;;;;5094218;28;20035;-15
2022/09/21 09:01:04;;;;;;;2.08;0.80;;;21.30;44.90;;;;;;5094109;28;20032;-15
2022/09/21 09:03:48;;;;;;;3.42;1.00;;;21.60;44.30;;;;;;5094227;28;20020;-16
2022/09/21 09:06:19;;;;;;;1.60;0.90;;;21.90;42.60;;;;;;5094026;28;20032;-14
2022/09/21 09:08:45;;;;;;;1.60;1.00;;;22.00;41.90;;;;;;5094327;28;20036;-13
2022/09/21 09:11:27;;;;;;;2.42;1.00;;;22.10;42.30;;;;;;5093908;28;20558;-15
2022/09/21 09:13:54;;;;;;;2.05;0.70;;;22.30;41.70;;;;;;5093892;28;20079;-14
2022/09/21 09:16:32;;;;;;;0.60;0.60;;;22.20;41.50;;;;;;5093744;28;20032;-15
2022/09/21 09:19:19;;;;;;;3.08;0.85;;;22.20;41.70;;;;;;5093988;28;20035;-14
2022/09/21 09:21:45;;;;;;;1.67;1.00;;;22.40;40.80;;;;;;5075297;28;20094;-15
2022/09/21 09:24:37;;;;;;;2.22;0.90;;;22.30;41.90;;;;;;5094047;28;20047;-14
2022/09/21 09:27:16;;;;;;;1.45;0.65;;;22.30;40.60;;;;;;5093581;28;20032;-14
2022/09/21 09:29:54;;;;;;;1.65;0.85;;;22.50;41.60;;;;;;5093701;28;20031;-14
2022/09/21 09:32:30;;;;;;;1.65;1.00;;;22.70;42.90;;;;;;5093617;28;20027;-15
2022/09/21 09:35:14;;;;;;;1.17;0.88;;;22.60;41.30;;;;;;5093522;28;20028;-15
2022/09/21 09:37:41;;;;;;;0.93;0.80;;;22.90;41.70;;;;;;5093478;28;20388;-17
2022/09/21 09:40:11;;;;;;;3.92;1.20;;;22.80;40.50;;;;;;5093638;28;20031;-15
2022/09/21 09:43:03;;;;;;;1.00;0.73;;;22.90;39.60;;;;;;5093456;28;20073;-14
2022/09/21 09:45:39;;;;;;;1.15;0.70;;;23.10;40.00;;;;;;5085615;28;20491;-14
2022/09/21 09:48:26;;;;;;;0.98;0.90;;;23.40;39.50;;;;;;5093265;28;20067;-14
2022/09/21 09:50:52;;;;;;;1.58;1.10;;;23.60;39.10;;;;;;5093247;28;20070;-14
2022/09/21 09:53:21;;;;;;;1.13;1.00;;;23.80;38.60;;;;;;5075874;28;20506;-15
2022/09/21 09:55:53;;;;;;;1.30;0.90;;;24.00;38.90;;;;;;5093805;28;20024;-14
2022/09/21 09:58:24;;;;;;;1.98;0.85;;;24.30;37.90;;;;;;5093255;28;20098;-14
2022/09/21 10:00:53;;;;;;;1.13;1.00;;;24.40;39.10;;;;;;5093029;28;20027;-14
2022/09/21 10:03:24;;;;;;;1.63;0.90;;;24.60;38.20;;;;;;5093232;28;20023;-15
2022/09/21 10:05:51;;;;;;;0.80;0.80;;;24.60;38.20;;;;;;5093511;28;20043;-15
2022/09/21 10:08:42;;;;;;;3.03;1.00;;;24.70;38.70;;;;;;5093090;28;20518;-15
2022/09/21 10:11:13;;;;;;;1.83;1.00;;;24.80;36.90;;;;;;5092950;28;20034;-15
2022/09/21 10:13:46;;;;;;;1.42;0.93;;;24.80;35.80;;;;;;5093153;28;20498;-15
2022/09/21 10:16:14;;;;;;;;;;;25.00;36.30;;;;;;5093822;28;20403;-15
2022/09/21 10:18:55;;;;;;;1.45;0.90;;;25.40;33.90;;;;;;5093080;28;19911;-15
2022/09/21 10:21:26;;;;;;;1.67;0.70;;;25.50;34.40;;;;;;5093816;28;20017;-13
2022/09/21 10:23:58;;;;;;;1.30;0.82;;;25.70;34.70;;;;;;5093050;28;20085;-14
2022/09/21 10:26:30;;;;;;;0.70;0.70;;;25.90;34.90;;;;;;5092982;28;20487;-15
2022/09/21 10:29:26;;;;;;;2.15;0.73;;;26.20;34.40;;;;;;5092849;28;20055;-15
2022/09/21 10:32:26;;;;;;;1.88;0.70;;;26.20;33.70;;;;;;5092914;28;20020;-15
2022/09/21 10:35:19;;;;;;;1.38;0.88;;;26.40;31.30;;;;;;5096833;28;20028;-14
2022/09/21 10:37:53;;;;;;;1.08;0.80;;;26.60;32.30;;;;;;5094408;28;20045;-15
2022/09/21 10:40:19;;;;;;;0.70;0.70;;;26.20;34.00;;;;;;5097210;28;20020;-15
2022/09/21 10:42:47;;;;;;;1.02;0.60;;;26.40;34.20;;;;;;5097014;28;20032;-15
2022/09/21 10:45:18;;;;;;;2.53;1.00;;;26.70;34.00;;;;;;5096632;28;20375;-15
2022/09/21 10:47:57;;;;;;;2.03;0.68;;;26.70;32.30;;;;;;5096771;28;20051;-15
2022/09/21 10:50:29;;;;;;;1.02;0.80;;;26.70;33.30;;;;;;5096932;28;20103;-15
2022/09/21 10:53:08;;;;;;;2.13;0.82;;;26.90;33.00;;;;;;5096572;28;20463;-14
2022/09/21 10:55:42;;;;;;;1.25;0.77;;;27.30;33.20;;;;;;5078502;28;20032;-15
2022/09/21 10:58:11;;;;;;;1.27;0.95;;;27.40;31.90;;;;;;5096874;28;20024;-15
2022/09/21 11:00:50;;;;;;;0.95;0.60;;;27.80;32.10;;;;;;5096465;28;20024;-14
2022/09/21 11:03:30;;;;;;;0.60;0.60;;;28.00;29.10;;;;;;5096707;28;20051;-15
2022/09/21 11:06:08;;;;;;;0.60;0.50;;;27.70;30.70;;;;;;5096540;28;20025;-15
2022/09/21 11:08:44;;;;;;;1.73;0.80;;;27.90;30.80;;;;;;5096632;28;20020;-14
2022/09/21 11:11:20;;;;;;;1.50;0.80;;;28.20;30.40;;;;;;5096170;28;20387;-16
2022/09/21 11:14:13;;;;;;;0.98;0.60;;;28.40;29.80;;;;;;5078119;28;20028;-16
2022/09/21 11:17:08;;;;;;;0.60;0.60;;;28.60;28.70;;;;;;5096347;28;20070;-16
2022/09/21 11:19:39;;;;;;;1.88;0.90;;;28.70;29.30;;;;;;5096477;28;20048;-16
2022/09/21 11:22:19;;;;;;;0.85;0.70;;;28.60;30.60;;;;;;5096090;28;20020;-16
2022/09/21 11:25:10;;;;;;;0.98;0.68;;;28.30;30.90;;;;;;5096113;28;20033;-16
2022/09/21 11:27:40;;;;;;;1.65;0.80;;;28.00;30.00;;;;;;5096310;28;20020;-15
2022/09/21 11:30:11;;;;;;;1.50;0.90;;;28.30;31.50;;;;;;5096256;28;20031;-16
2022/09/21 11:32:56;;;;;;;1.02;0.60;;;28.80;29.80;;;;;;5095777;28;20029;-15
2022/09/21 11:35:41;;;;;;;0.80;0.60;;;29.30;28.90;;;;;;5096091;28;20027;-14
2022/09/21 11:38:28;;;;;;;1.25;1.00;;;29.60;28.50;;;;;;5095800;28;20617;-15
2022/09/21 11:41:13;;;;;;;1.67;0.80;;;29.90;28.50;;;;;;5095680;28;20017;-15
2022/09/21 11:44:00;;;;;;;0.85;0.85;;;30.30;28.10;;;;;;5095269;28;20115;-15
2022/09/21 11:46:51;;;;;;;0.90;0.80;;;30.60;27.70;;;;;;5095262;28;20435;-15
2022/09/21 11:49:56;;;;;;;0.82;0.55;;;30.90;27.50;;;;;;5095901;28;20046;-15
2022/09/21 11:52:33;;;;;;;1.48;0.85;;;31.30;27.90;;;;;;5086927;28;20055;-15
2022/09/21 11:55:17;;;;;;;2.55;0.80;;;31.70;25.80;;;;;;5095567;28;20089;-14
2022/09/21 11:57:53;;;;;;;0.65;0.60;;;32.00;26.00;;;;;;5096080;28;20031;-15
2022/09/21 12:00:22;;;;;;;0.80;0.70;;;32.20;26.00;;;;;;5095674;28;20035;-15
2022/09/21 12:02:53;;;;;;;0.60;0.60;;;32.20;25.40;;;;;;5095085;28;20375;-16
2022/09/21 12:05:42;;;;;;;1.20;0.88;;;32.20;25.10;;;;;;5095793;28;20039;-16
2022/09/21 12:08:20;;;;;;;1.20;0.88;;;32.40;25.30;;;;;;5095180;28;20106;-15
2022/09/21 12:11:06;;;;;;;1.02;0.68;;;32.50;24.10;;;;;;5095291;28;20020;-15
2022/09/21 12:13:49;;;;;;;1.00;0.70;;;32.20;24.60;;;;;;5095214;28;20115;-15
2022/09/21 12:16:34;;;;;;;1.00;0.70;;;31.70;25.20;;;;;;5095273;28;20516;-15
2022/09/21 12:19:32;;;;;;;1.17;0.70;;;31.40;26.00;;;;;;5095105;28;20047;-15
2022/09/21 12:22:10;;;;;;;1.23;1.00;;;31.60;25.40;;;;;;5095305;28;20042;-15
2022/09/21 12:25:05;;;;;;;1.02;0.60;;;32.10;24.10;;;;;;5095111;28;20028;-14
2022/09/21 12:27:41;;;;;;;1.00;0.80;;;32.00;24.40;;;;;;5095189;28;20069;-18
2022/09/21 12:30:15;;;;;;;1.30;0.70;;;32.10;25.00;;;;;;5095028;28;20062;-15
2022/09/21 12:32:48;;;;;;;1.20;0.82;;;32.40;24.90;;;;;;5094876;28;20050;-15
2022/09/21 12:35:19;;;;;;;1.08;0.85;;;32.50;24.70;;;;;;5095146;28;20103;-14
2022/09/21 12:37:48;;;;;;;1.00;0.77;;;32.50;24.90;;;;;;5094678;28;20459;-15
2022/09/21 12:40:26;;;;;;;1.52;0.73;;;32.60;25.40;;;;;;5094850;28;20012;-15
2022/09/21 12:43:10;;;;;;;1.08;0.90;;;33.00;25.50;;;;;;5094508;28;20052;-14
2022/09/21 12:45:44;;;;;;;0.70;0.70;;;33.60;23.70;;;;;;5094414;28;20390;-14
2022/09/21 12:48:32;;;;;;;2.40;0.90;;;33.80;24.00;;;;;;5094376;28;20044;-15
2022/09/21 12:51:10;;;;;;;1.00;0.70;;;33.90;23.60;;;;;;5094184;28;20490;-15
2022/09/21 12:53:39;;;;;;;1.70;0.80;;;34.10;24.10;;;;;;5094378;28;20526;-16
2022/09/21 12:56:28;;;;;;;1.63;0.70;;;34.00;24.20;;;;;;5093519;28;20020;-15
2022/09/21 12:59:13;;;;;;;1.02;0.80;;;33.70;24.50;;;;;;5094353;28;20110;-16
2022/09/21 13:01:55;;;;;;;2.08;0.73;;;33.60;25.10;;;;;;5094297;28;20024;-15
2022/09/21 13:04:34;;;;;;;1.17;0.80;;;33.80;24.60;;;;;;5094434;28;20031;-15
2022/09/21 13:07:32;;;;;;;2.47;0.73;;;33.90;24.00;;;;;;5094177;28;20308;-16
2022/09/21 13:10:22;;;;;;;0.98;0.70;;;33.40;24.10;;;;;;5094323;28;20115;-15
2022/09/21 13:12:55;;;;;;;1.10;0.80;;;33.30;24.50;;;;;;5094140;28;20031;-16
2022/09/21 13:15:28;;;;;;;1.40;1.05;;;33.30;24.50;;;;;;5093954;28;20032;-15
2022/09/21 13:18:05;;;;;;;1.05;0.80;;;33.50;24.10;;;;;;5093797;28;20017;-15
2022/09/21 13:20:39;;;;;;;0.95;0.90;;;32.70;24.30;;;;;;5094081;28;20020;-15
2022/09/21 13:23:15;;;;;;;3.05;1.10;;;32.00;25.20;;;;;;5093977;28;20028;-15